createdAt,value
2023-10-09T00:00:41.644Z,17.11
2023-10-09T00:01:41.504Z,17.04
2023-10-09T00:02:41.478Z,17.13
2023-10-09T00:03:41.502Z,17.26
2023-10-09T00:04:41.580Z,17.25
2023-10-09T00:05:41.412Z,17.13
2023-10-09T00:06:41.505Z,17.03
2023-10-09T00:07:41.542Z,16.98
2023-10-09T00:08:41.363Z,17.03
2023-10-09T00:09:41.338Z,17.18
2023-10-09T00:10:41.345Z,17.23
2023-10-09T00:11:41.482Z,17.32
2023-10-09T00:12:41.338Z,17.32
2023-10-09T00:13:41.311Z,17.32
2023-10-09T00:14:41.301Z,17.32
2023-10-09T00:15:41.284Z,17.26
2023-10-09T00:16:41.290Z,17.29
2023-10-09T00:17:41.279Z,17.32
2023-10-09T00:18:41.505Z,17.28
2023-10-09T00:19:41.229Z,17.22
2023-10-09T00:20:41.225Z,17.15
2023-10-09T00:21:41.206Z,17.06
2023-10-09T00:22:41.420Z,16.95
2023-10-09T00:23:41.212Z,16.98
2023-10-09T00:24:41.180Z,16.95
2023-10-09T00:25:41.156Z,16.95
2023-10-09T00:26:41.148Z,16.98
2023-10-09T00:27:41.450Z,16.98
2023-10-09T00:28:41.153Z,16.99
2023-10-09T00:29:41.120Z,17.00
2023-10-09T00:30:41.230Z,17.06
2023-10-09T00:31:41.108Z,17.10
2023-10-09T00:32:41.118Z,17.18
2023-10-09T00:33:41.164Z,17.22
2023-10-09T00:34:41.535Z,17.20
2023-10-09T00:35:41.056Z,17.08
2023-10-09T00:36:43.206Z,17.07
2023-10-09T00:37:41.015Z,17.08
2023-10-09T00:38:41.233Z,17.15
2023-10-09T00:39:40.986Z,17.00
2023-10-09T00:40:41.077Z,17.06
2023-10-09T00:41:40.967Z,17.03
2023-10-09T00:42:40.974Z,17.00
2023-10-09T00:43:40.955Z,17.04
2023-10-09T00:44:40.945Z,17.10
2023-10-09T00:45:40.962Z,17.14
2023-10-09T00:46:40.956Z,17.22
2023-10-09T00:47:40.928Z,17.13
2023-10-09T00:48:41.016Z,17.03
2023-10-09T00:49:40.868Z,17.04
2023-10-09T00:50:40.877Z,17.06
2023-10-09T00:51:40.880Z,17.11
2023-10-09T00:52:40.829Z,17.22
2023-10-09T00:53:41.081Z,17.18
2023-10-09T00:54:40.929Z,17.23
2023-10-09T00:55:40.814Z,17.15
2023-10-09T00:56:40.787Z,17.11
2023-10-09T00:57:40.904Z,17.07
2023-10-09T00:58:40.790Z,17.07
2023-10-09T00:59:40.782Z,16.99
2023-10-09T01:00:40.745Z,16.95
2023-10-09T01:01:40.762Z,16.93
2023-10-09T01:02:40.796Z,16.93
2023-10-09T01:03:40.823Z,16.93
2023-10-09T01:04:41.095Z,16.88
2023-10-09T01:05:40.701Z,16.85
2023-10-09T01:06:40.755Z,16.74
2023-10-09T01:07:40.673Z,16.71
2023-10-09T01:08:40.668Z,16.78
2023-10-09T01:09:40.657Z,16.77
2023-10-09T01:10:40.704Z,16.77
2023-10-09T01:11:40.681Z,16.78
2023-10-09T01:12:40.682Z,16.80
2023-10-09T01:13:40.710Z,16.68
2023-10-09T01:14:40.889Z,16.67
2023-10-09T01:15:40.817Z,16.65
2023-10-09T01:16:40.574Z,16.45
2023-10-09T01:17:40.942Z,16.23
2023-10-09T01:18:40.606Z,16.18
2023-10-09T01:19:40.549Z,16.23
2023-10-09T01:20:40.538Z,16.25
2023-10-09T01:21:40.560Z,16.26
2023-10-09T01:22:40.506Z,16.33
2023-10-09T01:23:40.517Z,16.42
2023-10-09T01:24:40.517Z,16.30
2023-10-09T01:25:40.813Z,16.18
2023-10-09T01:26:41.225Z,16.07
2023-10-09T01:27:40.690Z,15.94
2023-10-09T01:28:40.430Z,15.79
2023-10-09T01:29:40.664Z,15.88
2023-10-09T01:30:40.407Z,16.04
2023-10-09T01:31:40.436Z,16.04
2023-10-09T01:32:40.411Z,15.96
2023-10-09T01:33:40.622Z,15.92
2023-10-09T01:34:40.881Z,15.93
2023-10-09T01:35:40.380Z,16.03
2023-10-09T01:36:40.335Z,16.15
2023-10-09T01:37:40.420Z,16.15
2023-10-09T01:38:40.312Z,16.07
2023-10-09T01:39:40.307Z,16.03
2023-10-09T01:40:40.284Z,15.78
2023-10-09T01:41:40.384Z,15.82
2023-10-09T01:42:40.284Z,15.85
2023-10-09T01:43:40.266Z,15.97
2023-10-09T01:44:40.283Z,16.00
2023-10-09T01:45:40.529Z,16.00
2023-10-09T01:46:40.254Z,15.96
2023-10-09T01:47:40.242Z,15.94
2023-10-09T01:48:40.241Z,15.96
2023-10-09T01:49:40.333Z,16.01
2023-10-09T01:50:40.186Z,15.99
2023-10-09T01:51:40.176Z,15.99
2023-10-09T01:52:40.159Z,15.96
2023-10-09T01:53:40.147Z,15.97
2023-10-09T01:54:40.127Z,15.97
2023-10-09T01:55:40.137Z,15.94
2023-10-09T01:56:40.121Z,15.88
2023-10-09T01:57:40.121Z,15.85
2023-10-09T01:58:40.118Z,15.85
2023-10-09T01:59:40.111Z,15.93
2023-10-09T02:00:40.081Z,15.88
2023-10-09T02:01:40.122Z,15.94
2023-10-09T02:02:40.147Z,15.97
2023-10-09T02:03:40.198Z,15.92
2023-10-09T02:04:40.039Z,15.78
2023-10-09T02:05:40.027Z,15.76
2023-10-09T02:06:40.094Z,15.78
2023-10-09T02:07:39.985Z,15.84
2023-10-09T02:08:39.981Z,15.64
2023-10-09T02:09:40.012Z,15.68
2023-10-09T02:10:39.947Z,15.78
2023-10-09T02:11:39.965Z,15.72
2023-10-09T02:12:39.927Z,15.78
2023-10-09T02:13:39.933Z,15.79
2023-10-09T02:14:39.949Z,15.86
2023-10-09T02:15:39.977Z,15.88
2023-10-09T02:16:39.915Z,15.92
2023-10-09T02:17:39.896Z,15.78
2023-10-09T02:18:39.926Z,15.82
2023-10-09T02:19:39.917Z,15.81
2023-10-09T02:20:39.876Z,15.74
2023-10-09T02:21:39.863Z,15.88
2023-10-09T02:22:39.816Z,15.85
2023-10-09T02:23:39.828Z,15.96
2023-10-09T02:24:39.877Z,15.99
2023-10-09T02:25:39.796Z,16.06
2023-10-09T02:26:39.839Z,16.11
2023-10-09T02:27:39.809Z,16.03
2023-10-09T02:28:39.772Z,16.04
2023-10-09T02:29:39.807Z,15.97
2023-10-09T02:30:39.805Z,15.96
2023-10-09T02:31:39.760Z,15.94
2023-10-09T02:32:39.760Z,15.94
2023-10-09T02:33:39.773Z,15.99
2023-10-09T02:34:39.702Z,15.99
2023-10-09T02:35:39.683Z,15.92
2023-10-09T02:36:39.907Z,15.82
2023-10-09T02:37:39.647Z,15.88
2023-10-09T02:38:39.660Z,15.96
2023-10-09T02:39:39.626Z,15.97
2023-10-09T02:40:39.648Z,16.07
2023-10-09T02:41:39.605Z,16.07
2023-10-09T02:42:39.626Z,16.06
2023-10-09T02:43:39.599Z,16.01
2023-10-09T02:44:39.603Z,15.97
2023-10-09T02:45:39.612Z,15.92
2023-10-09T02:46:39.570Z,15.79
2023-10-09T02:47:39.610Z,15.79
2023-10-09T02:48:39.552Z,15.94
2023-10-09T02:49:39.538Z,15.97
2023-10-09T02:50:39.526Z,16.00
2023-10-09T02:51:39.483Z,15.99
2023-10-09T02:52:39.474Z,15.92
2023-10-09T02:53:39.468Z,15.82
2023-10-09T02:54:39.521Z,15.74
2023-10-09T02:55:39.455Z,15.72
2023-10-09T02:56:39.427Z,15.46
2023-10-09T02:57:39.454Z,15.42
2023-10-09T02:58:39.425Z,15.60
2023-10-09T02:59:39.396Z,15.57
2023-10-09T03:00:39.468Z,15.61
2023-10-09T03:01:39.407Z,15.52
2023-10-09T03:02:39.444Z,15.56
2023-10-09T03:03:39.455Z,15.61
2023-10-09T03:04:39.366Z,15.60
2023-10-09T03:05:39.350Z,15.66
2023-10-09T03:06:39.554Z,15.75
2023-10-09T03:07:39.297Z,15.68
2023-10-09T03:08:39.344Z,15.72
2023-10-09T03:09:39.387Z,15.79
2023-10-09T03:10:39.334Z,15.74
2023-10-09T03:11:39.262Z,15.76
2023-10-09T03:12:39.305Z,15.85
2023-10-09T03:13:39.246Z,15.86
2023-10-09T03:14:39.407Z,15.88
2023-10-09T03:15:39.257Z,15.67
2023-10-09T03:16:39.307Z,15.84
2023-10-09T03:17:39.225Z,15.86
2023-10-09T03:18:39.283Z,15.93
2023-10-09T03:19:39.358Z,15.88
2023-10-09T03:20:39.158Z,15.93
2023-10-09T03:21:39.211Z,15.86
2023-10-09T03:22:39.180Z,15.97
2023-10-09T03:23:39.167Z,15.96
2023-10-09T03:24:39.155Z,16.00
2023-10-09T03:25:39.133Z,16.06
2023-10-09T03:26:39.093Z,15.66
2023-10-09T03:27:39.144Z,15.54
2023-10-09T03:28:39.070Z,15.63
2023-10-09T03:29:39.052Z,15.86
2023-10-09T03:30:39.396Z,15.61
2023-10-09T03:31:39.350Z,15.66
2023-10-09T03:32:39.201Z,15.79
2023-10-09T03:33:39.095Z,16.04
2023-10-09T03:34:39.022Z,15.97
2023-10-09T03:35:39.058Z,15.89
2023-10-09T03:36:39.041Z,15.99
2023-10-09T03:37:38.959Z,16.14
2023-10-09T03:38:38.962Z,16.09
2023-10-09T03:39:39.123Z,15.86
2023-10-09T03:40:39.008Z,15.97
2023-10-09T03:41:39.019Z,16.16
2023-10-09T03:42:38.945Z,16.25
2023-10-09T03:43:38.913Z,16.00
2023-10-09T03:44:38.930Z,16.07
2023-10-09T03:45:38.912Z,16.12
2023-10-09T03:46:38.867Z,16.15
2023-10-09T03:47:38.931Z,15.94
2023-10-09T03:48:39.971Z,15.74
2023-10-09T03:49:38.839Z,15.78
2023-10-09T03:50:38.929Z,15.74
2023-10-09T03:51:38.957Z,16.03
2023-10-09T03:52:38.802Z,16.26
2023-10-09T03:53:38.805Z,16.37
2023-10-09T03:54:38.863Z,16.45
2023-10-09T03:55:38.760Z,16.34
2023-10-09T03:56:38.773Z,16.40
2023-10-09T03:57:38.754Z,16.45
2023-10-09T03:58:38.720Z,16.42
2023-10-09T03:59:38.787Z,16.41
2023-10-09T04:00:38.724Z,16.49
2023-10-09T04:01:38.715Z,16.53
2023-10-09T04:02:38.778Z,16.31
2023-10-09T04:03:38.795Z,16.04
2023-10-09T04:04:38.703Z,16.16
2023-10-09T04:05:38.642Z,16.23
2023-10-09T04:06:38.679Z,16.30
2023-10-09T04:07:38.616Z,16.33
2023-10-09T04:08:38.638Z,16.44
2023-10-09T04:09:38.631Z,16.49
2023-10-09T04:10:38.729Z,16.48
2023-10-09T04:11:38.601Z,16.48
2023-10-09T04:12:38.596Z,16.58
2023-10-09T04:13:38.665Z,16.59
2023-10-09T04:14:38.532Z,16.53
2023-10-09T04:15:38.589Z,16.58
2023-10-09T04:16:38.682Z,16.41
2023-10-09T04:17:38.658Z,16.23
2023-10-09T04:18:38.725Z,16.31
2023-10-09T04:19:38.788Z,16.26
2023-10-09T04:20:38.643Z,16.31
2023-10-09T04:21:38.712Z,16.30
2023-10-09T04:22:38.643Z,16.26
2023-10-09T04:23:38.535Z,16.33
2023-10-09T04:24:38.836Z,16.45
2023-10-09T04:25:38.676Z,16.50
2023-10-09T04:26:38.662Z,16.48
2023-10-09T04:27:38.612Z,16.27
2023-10-09T04:28:38.779Z,15.93
2023-10-09T04:29:38.611Z,15.88
2023-10-09T04:30:38.499Z,16.06
2023-10-09T04:31:38.373Z,15.93
2023-10-09T04:32:38.376Z,16.03
2023-10-09T04:33:38.376Z,16.23
2023-10-09T04:34:38.311Z,16.26
2023-10-09T04:35:38.300Z,16.35
2023-10-09T04:36:38.348Z,16.33
2023-10-09T04:37:38.396Z,16.33
2023-10-09T04:38:38.273Z,16.20
2023-10-09T04:39:38.630Z,16.35
2023-10-09T04:40:38.233Z,16.37
2023-10-09T04:41:38.233Z,16.41
2023-10-09T04:42:38.233Z,16.41
2023-10-09T04:43:38.403Z,16.35
2023-10-09T04:44:38.197Z,16.15
2023-10-09T04:45:38.204Z,16.15
2023-10-09T04:46:38.198Z,15.96
2023-10-09T04:47:38.547Z,16.16
2023-10-09T04:48:38.237Z,16.20
2023-10-09T04:49:38.150Z,16.20
2023-10-09T04:50:38.136Z,16.27
2023-10-09T04:51:38.221Z,16.26
2023-10-09T04:52:38.151Z,16.16
2023-10-09T04:53:38.091Z,16.23
2023-10-09T04:54:38.170Z,16.22
2023-10-09T04:55:38.087Z,16.38
2023-10-09T04:56:38.053Z,16.45
2023-10-09T04:57:38.074Z,16.34
2023-10-09T04:58:38.087Z,16.40
2023-10-09T04:59:38.084Z,16.44
2023-10-09T05:00:38.060Z,16.16
2023-10-09T05:01:38.090Z,16.30
2023-10-09T05:02:38.042Z,16.38
2023-10-09T05:03:38.065Z,16.48
2023-10-09T05:04:37.996Z,16.41
2023-10-09T05:05:37.974Z,16.38
2023-10-09T05:06:37.967Z,16.27
2023-10-09T05:07:38.070Z,16.45
2023-10-09T05:08:37.920Z,16.50
2023-10-09T05:09:37.924Z,16.53
2023-10-09T05:10:38.843Z,16.49
2023-10-09T05:11:37.945Z,16.45
2023-10-09T05:12:37.909Z,16.40
2023-10-09T05:13:37.861Z,16.45
2023-10-09T05:14:37.846Z,16.14
2023-10-09T05:15:37.869Z,16.14
2023-10-09T05:16:37.855Z,16.31
2023-10-09T05:17:37.844Z,16.07
2023-10-09T05:18:37.883Z,16.15
2023-10-09T05:19:37.825Z,16.18
2023-10-09T05:20:37.782Z,16.03
2023-10-09T05:21:37.824Z,16.09
2023-10-09T05:22:37.993Z,16.30
2023-10-09T05:23:37.747Z,16.38
2023-10-09T05:24:37.755Z,16.33
2023-10-09T05:25:37.788Z,16.34
2023-10-09T05:26:37.741Z,16.31
2023-10-09T05:27:37.795Z,16.23
2023-10-09T05:28:37.698Z,16.20
2023-10-09T05:29:37.673Z,16.12
2023-10-09T05:30:37.697Z,15.96
2023-10-09T05:31:37.725Z,15.92
2023-10-09T05:32:37.791Z,15.89
2023-10-09T05:33:38.180Z,16.04
2023-10-09T05:34:37.656Z,16.12
2023-10-09T05:35:37.601Z,16.03
2023-10-09T05:36:37.650Z,16.14
2023-10-09T05:37:37.615Z,16.04
2023-10-09T05:38:37.567Z,16.04
2023-10-09T05:39:37.659Z,16.20
2023-10-09T05:40:37.550Z,16.20
2023-10-09T05:41:37.536Z,16.22
2023-10-09T05:42:37.722Z,16.30
2023-10-09T05:43:37.552Z,16.20
2023-10-09T05:44:37.536Z,16.22
2023-10-09T05:45:37.543Z,16.25
2023-10-09T05:46:37.573Z,16.00
2023-10-09T05:47:37.482Z,16.16
2023-10-09T05:48:37.560Z,16.26
2023-10-09T05:49:37.515Z,16.27
2023-10-09T05:50:37.479Z,16.34
2023-10-09T05:51:37.494Z,16.20
2023-10-09T05:52:37.439Z,16.14
2023-10-09T05:53:37.479Z,16.22
2023-10-09T05:54:37.419Z,16.27
2023-10-09T05:55:37.398Z,16.34
2023-10-09T05:56:37.367Z,16.30
2023-10-09T05:57:37.430Z,16.40
2023-10-09T05:58:37.641Z,16.45
2023-10-09T05:59:37.345Z,16.50
2023-10-09T06:00:37.711Z,16.14
2023-10-09T06:01:37.406Z,16.23
2023-10-09T06:02:42.636Z,16.23
2023-10-09T06:03:38.440Z,16.30
2023-10-09T06:04:37.469Z,16.44
2023-10-09T06:05:37.287Z,16.52
2023-10-09T06:06:37.592Z,16.55
2023-10-09T06:07:37.266Z,16.50
2023-10-09T06:08:37.367Z,16.35
2023-10-09T06:09:37.244Z,16.37
2023-10-09T06:10:37.209Z,16.37
2023-10-09T06:11:37.195Z,16.31
2023-10-09T06:12:37.333Z,16.44
2023-10-09T06:13:37.166Z,16.48
2023-10-09T06:14:37.171Z,16.52
2023-10-09T06:15:37.196Z,16.33
2023-10-09T06:16:37.152Z,16.26
2023-10-09T06:17:37.232Z,16.16
2023-10-09T06:18:37.147Z,16.37
2023-10-09T06:19:37.100Z,16.31
2023-10-09T06:20:37.083Z,16.35
2023-10-09T06:21:37.104Z,16.34
2023-10-09T06:22:37.100Z,16.31
2023-10-09T06:23:37.107Z,16.14
2023-10-09T06:24:38.342Z,16.20
2023-10-09T06:25:37.042Z,16.25
2023-10-09T06:26:37.015Z,16.33
2023-10-09T06:27:37.043Z,16.53
2023-10-09T06:28:37.034Z,16.75
2023-10-09T06:29:37.000Z,16.56
2023-10-09T06:30:37.047Z,16.67
2023-10-09T06:31:37.074Z,16.52
2023-10-09T06:32:36.984Z,16.55
2023-10-09T06:33:36.962Z,16.59
2023-10-09T06:34:37.265Z,16.55
2023-10-09T06:35:36.990Z,16.56
2023-10-09T06:36:36.949Z,16.74
2023-10-09T06:37:36.895Z,16.71
2023-10-09T06:38:36.886Z,16.78
2023-10-09T06:39:36.936Z,16.70
2023-10-09T06:40:36.893Z,16.90
2023-10-09T06:41:36.902Z,16.88
2023-10-09T06:42:36.896Z,16.78
2023-10-09T06:43:36.874Z,16.90
2023-10-09T06:44:36.822Z,16.83
2023-10-09T06:45:36.878Z,16.86
2023-10-09T06:46:36.866Z,16.93
2023-10-09T06:47:36.909Z,16.90
2023-10-09T06:48:36.798Z,17.14
2023-10-09T06:49:36.746Z,16.96
2023-10-09T06:50:36.752Z,17.13
2023-10-09T06:51:36.777Z,17.28
2023-10-09T06:52:36.722Z,17.28
2023-10-09T06:53:36.753Z,17.07
2023-10-09T06:54:38.292Z,17.04
2023-10-09T06:55:36.741Z,17.14
2023-10-09T06:56:36.704Z,17.23
2023-10-09T06:57:36.689Z,17.25
2023-10-09T06:58:36.700Z,17.46
2023-10-09T06:59:36.667Z,17.63
2023-10-09T07:00:36.733Z,17.73
2023-10-09T07:01:36.665Z,17.76
2023-10-09T07:02:36.710Z,17.67
2023-10-09T07:03:36.722Z,17.78
2023-10-09T07:04:36.706Z,17.73
2023-10-09T07:05:36.559Z,17.78
2023-10-09T07:06:36.596Z,17.87
2023-10-09T07:07:36.574Z,17.91
2023-10-09T07:08:36.578Z,17.88
2023-10-09T07:09:36.571Z,17.91
2023-10-09T07:10:36.520Z,17.50
2023-10-09T07:11:36.530Z,17.66
2023-10-09T07:12:36.535Z,17.79
2023-10-09T07:13:36.550Z,17.70
2023-10-09T07:14:36.500Z,17.57
2023-10-09T07:15:36.499Z,17.53
2023-10-09T07:16:36.520Z,17.36
2023-10-09T07:17:36.442Z,17.43
2023-10-09T07:18:36.469Z,17.30
2023-10-09T07:19:36.529Z,17.18
2023-10-09T07:20:36.421Z,17.32
2023-10-09T07:21:36.464Z,17.41
2023-10-09T07:22:36.392Z,17.54
2023-10-09T07:23:36.374Z,17.41
2023-10-09T07:24:36.424Z,17.40
2023-10-09T07:25:36.362Z,17.54
2023-10-09T07:26:36.340Z,17.50
2023-10-09T07:27:36.421Z,17.66
2023-10-09T07:28:36.320Z,17.73
2023-10-09T07:29:36.299Z,17.81
2023-10-09T07:30:36.499Z,17.64
2023-10-09T07:31:36.567Z,17.81
2023-10-09T07:32:36.394Z,17.44
2023-10-09T07:33:36.296Z,17.85
2023-10-09T07:34:36.270Z,18.24
2023-10-09T07:35:36.244Z,18.09
2023-10-09T07:36:36.708Z,17.97
2023-10-09T07:37:36.358Z,18.15
2023-10-09T07:38:36.198Z,18.43
2023-10-09T07:39:36.534Z,18.46
2023-10-09T07:40:36.224Z,18.09
2023-10-09T07:41:36.231Z,17.95
2023-10-09T07:42:36.306Z,17.97
2023-10-09T07:43:36.147Z,17.89
2023-10-09T07:44:36.305Z,17.94
2023-10-09T07:45:36.238Z,18.06
2023-10-09T07:46:36.175Z,17.99
2023-10-09T07:47:36.328Z,18.27
2023-10-09T07:48:36.121Z,18.49
2023-10-09T07:49:36.085Z,18.33
2023-10-09T07:50:36.081Z,18.55
2023-10-09T07:51:36.117Z,18.91
2023-10-09T07:52:36.287Z,18.84
2023-10-09T07:53:36.071Z,18.73
2023-10-09T07:54:36.092Z,18.77
2023-10-09T07:55:36.090Z,18.74
2023-10-09T07:56:36.025Z,18.72
2023-10-09T07:57:36.024Z,18.83
2023-10-09T07:58:35.997Z,18.84
2023-10-09T07:59:35.999Z,18.74
2023-10-09T08:00:36.043Z,19.14
2023-10-09T08:01:36.025Z,19.28
2023-10-09T08:02:35.965Z,19.21
2023-10-09T08:03:36.008Z,19.42
2023-10-09T08:04:36.013Z,19.33
2023-10-09T08:05:36.121Z,19.24
2023-10-09T08:06:36.451Z,19.21
2023-10-09T08:08:02.510Z,19.33
2023-10-09T08:08:39.213Z,19.66
2023-10-09T08:09:35.867Z,19.60
2023-10-09T08:10:35.990Z,19.72
2023-10-09T08:11:35.874Z,19.65
2023-10-09T08:12:35.884Z,19.72
2023-10-09T08:13:35.840Z,19.86
2023-10-09T08:14:35.847Z,19.84
2023-10-09T08:15:35.907Z,19.60
2023-10-09T08:16:35.786Z,19.58
2023-10-09T08:17:35.814Z,19.50
2023-10-09T08:18:35.780Z,19.28
2023-10-09T08:19:35.779Z,18.90
2023-10-09T08:20:35.747Z,19.06
2023-10-09T08:21:35.734Z,19.23
2023-10-09T08:22:35.711Z,19.31
2023-10-09T08:23:35.681Z,19.29
2023-10-09T08:24:35.700Z,19.40
2023-10-09T08:25:35.691Z,19.10
2023-10-09T08:26:35.642Z,19.02
2023-10-09T08:27:35.631Z,19.35
2023-10-09T08:28:35.725Z,19.60
2023-10-09T08:29:35.633Z,19.83
2023-10-09T08:30:35.643Z,19.91
2023-10-09T08:31:36.018Z,19.87
2023-10-09T08:34:16.302Z,19.28
2023-10-09T08:35:01.054Z,19.42
2023-10-09T08:35:37.177Z,19.38
2023-10-09T08:36:35.717Z,19.60
2023-10-09T08:37:35.532Z,19.78
2023-10-09T08:38:35.591Z,19.61
2023-10-09T08:39:35.482Z,19.31
2023-10-09T08:40:35.537Z,19.47
2023-10-09T08:41:35.474Z,19.76
2023-10-09T08:42:35.514Z,19.94
2023-10-09T08:43:35.532Z,20.00
2023-10-09T08:44:35.436Z,20.08
2023-10-09T08:45:35.436Z,20.05
2023-10-09T08:46:35.452Z,20.16
2023-10-09T08:47:35.415Z,20.21
2023-10-09T08:48:35.426Z,20.18
2023-10-09T08:49:35.441Z,20.28
2023-10-09T08:50:35.466Z,20.24
2023-10-09T08:51:35.350Z,20.27
2023-10-09T08:52:35.358Z,20.05
2023-10-09T08:53:35.368Z,19.90
2023-10-09T08:54:35.317Z,19.87
2023-10-09T08:55:35.360Z,19.73
2023-10-09T08:56:35.300Z,19.80
2023-10-09T08:57:35.279Z,19.76
2023-10-09T08:58:35.351Z,19.76
2023-10-09T08:59:35.621Z,20.00
2023-10-09T09:00:35.249Z,19.87
2023-10-09T09:01:35.330Z,19.95
2023-10-09T09:02:35.230Z,20.16
2023-10-09T09:03:35.243Z,20.31
2023-10-09T09:04:35.246Z,20.30
2023-10-09T09:05:35.247Z,20.13
2023-10-09T09:06:35.206Z,20.33
2023-10-09T09:07:35.201Z,20.34
2023-10-09T09:08:35.153Z,20.50
2023-10-09T09:09:35.187Z,20.65
2023-10-09T09:10:35.220Z,20.66
2023-10-09T09:11:35.227Z,20.46
2023-10-09T09:12:35.103Z,20.47
2023-10-09T09:13:35.114Z,20.50
2023-10-09T09:14:35.088Z,20.33
2023-10-09T09:15:35.130Z,20.39
2023-10-09T09:16:35.180Z,20.71
2023-10-09T09:17:35.185Z,20.96
2023-10-09T09:18:35.097Z,21.11
2023-10-09T09:19:35.038Z,20.74
2023-10-09T09:20:35.014Z,21.01
2023-10-09T09:21:35.000Z,21.27
2023-10-09T09:22:35.059Z,21.35
2023-10-09T09:23:34.980Z,21.54
2023-10-09T09:24:35.006Z,21.71
2023-10-09T09:25:35.206Z,21.51
2023-10-09T09:26:35.394Z,21.23
2023-10-09T09:27:34.954Z,21.29
2023-10-09T09:28:35.837Z,21.44
2023-10-09T09:29:34.916Z,21.05
2023-10-09T09:30:36.069Z,21.11
2023-10-09T09:31:35.784Z,20.89
2023-10-09T09:32:34.909Z,21.06
2023-10-09T09:33:34.977Z,21.11
2023-10-09T09:34:34.868Z,20.90
2023-10-09T09:35:34.889Z,21.01
2023-10-09T09:36:34.860Z,21.17
2023-10-09T09:37:34.867Z,21.32
2023-10-09T09:38:34.846Z,21.13
2023-10-09T09:39:45.470Z,20.99
2023-10-09T09:40:35.915Z,20.77
2023-10-09T09:41:34.779Z,20.51
2023-10-09T09:42:34.815Z,20.15
2023-10-09T09:43:34.767Z,20.10
2023-10-09T09:44:34.778Z,20.13
2023-10-09T09:45:34.744Z,20.25
2023-10-09T09:46:35.314Z,20.51
2023-10-09T09:47:34.863Z,20.47
2023-10-09T09:48:34.716Z,20.79
2023-10-09T09:49:38.580Z,20.76
2023-10-09T09:50:34.715Z,20.69
2023-10-09T09:51:34.691Z,20.80
2023-10-09T09:52:34.751Z,20.62
2023-10-09T09:53:34.659Z,20.68
2023-10-09T09:54:34.654Z,20.87
2023-10-09T09:55:34.660Z,20.81
2023-10-09T09:56:34.769Z,21.09
2023-10-09T09:57:34.613Z,21.02
2023-10-09T09:58:34.640Z,21.19
2023-10-09T09:59:34.565Z,21.20
2023-10-09T10:00:34.616Z,21.11
2023-10-09T10:01:34.585Z,21.13
2023-10-09T10:02:34.903Z,20.81
2023-10-09T10:03:34.757Z,21.01
2023-10-09T10:04:34.584Z,20.79
2023-10-09T10:05:34.544Z,20.74
2023-10-09T10:06:34.617Z,20.81
2023-10-09T10:07:34.522Z,20.80
2023-10-09T10:08:34.658Z,20.56
2023-10-09T10:09:34.509Z,20.31
2023-10-09T10:10:34.582Z,20.62
2023-10-09T10:11:34.430Z,20.66
2023-10-09T10:12:34.464Z,20.76
2023-10-09T10:13:34.488Z,20.66
2023-10-09T10:14:34.403Z,20.42
2023-10-09T10:15:34.398Z,20.34
2023-10-09T10:16:34.528Z,20.53
2023-10-09T10:17:34.610Z,20.35
2023-10-09T10:18:34.452Z,20.20
2023-10-09T10:19:34.430Z,20.58
2023-10-09T10:20:34.432Z,20.86
2023-10-09T10:21:34.368Z,21.30
2023-10-09T10:22:34.397Z,21.44
2023-10-09T10:23:34.301Z,21.69
2023-10-09T10:24:34.331Z,21.90
2023-10-09T10:25:34.634Z,21.66
2023-10-09T10:26:34.284Z,21.53
2023-10-09T10:27:34.473Z,21.38
2023-10-09T10:28:34.273Z,21.41
2023-10-09T10:29:34.268Z,21.64
2023-10-09T10:30:34.437Z,21.44
2023-10-09T10:31:34.238Z,21.51
2023-10-09T10:32:34.198Z,21.51
2023-10-09T10:33:34.280Z,21.57
2023-10-09T10:34:34.185Z,21.54
2023-10-09T10:35:34.159Z,21.91
2023-10-09T10:36:34.160Z,21.51
2023-10-09T10:37:34.157Z,21.20
2023-10-09T10:38:34.208Z,21.01
2023-10-09T10:39:34.145Z,21.21
2023-10-09T10:40:34.146Z,21.16
2023-10-09T10:41:34.092Z,21.36
2023-10-09T10:42:34.079Z,21.50
2023-10-09T10:43:34.619Z,21.46
2023-10-09T10:44:34.066Z,21.36
2023-10-09T10:45:34.052Z,21.41
2023-10-09T10:46:34.162Z,21.64
2023-10-09T10:47:34.031Z,21.56
2023-10-09T10:48:34.010Z,21.63
2023-10-09T10:49:34.020Z,21.98
2023-10-09T10:50:33.982Z,22.17
2023-10-09T10:51:34.130Z,22.53
2023-10-09T10:52:34.045Z,22.37
2023-10-09T10:53:34.166Z,22.13
2023-10-09T10:54:34.013Z,22.07
2023-10-09T10:55:33.994Z,22.16
2023-10-09T10:56:33.917Z,22.32
2023-10-09T10:57:33.973Z,22.38
2023-10-09T10:58:33.934Z,22.09
2023-10-09T10:59:33.898Z,22.12
2023-10-09T11:00:33.928Z,21.72
2023-10-09T11:01:33.938Z,21.26
2023-10-09T11:02:34.000Z,21.38
2023-10-09T11:03:33.898Z,21.11
2023-10-09T11:04:34.180Z,21.01
2023-10-09T11:05:33.902Z,21.32
2023-10-09T11:06:33.804Z,21.35
2023-10-09T11:07:33.819Z,21.57
2023-10-09T11:08:33.825Z,21.75
2023-10-09T11:09:43.170Z,22.12
2023-10-09T11:10:34.768Z,22.02
2023-10-09T11:11:33.782Z,21.75
2023-10-09T11:12:33.746Z,21.75
2023-10-09T11:13:33.773Z,21.71
2023-10-09T11:14:33.707Z,21.53
2023-10-09T11:15:33.720Z,21.51
2023-10-09T11:16:33.713Z,21.35
2023-10-09T11:17:33.714Z,21.60
2023-10-09T11:18:33.714Z,21.53
2023-10-09T11:19:33.767Z,21.46
2023-10-09T11:20:33.654Z,21.23
2023-10-09T11:21:33.633Z,21.23
2023-10-09T11:22:33.674Z,21.04
2023-10-09T11:23:33.635Z,21.11
2023-10-09T11:24:33.624Z,21.39
2023-10-09T11:25:33.668Z,21.20
2023-10-09T11:26:33.590Z,21.16
2023-10-09T11:27:33.610Z,21.06
2023-10-09T11:28:33.600Z,21.01
2023-10-09T11:29:33.531Z,21.38
2023-10-09T11:30:33.675Z,21.97
2023-10-09T11:31:33.549Z,22.09
2023-10-09T11:32:33.552Z,22.14
2023-10-09T11:33:33.499Z,22.28
2023-10-09T11:34:33.577Z,21.92
2023-10-09T11:35:33.540Z,21.95
2023-10-09T11:36:33.494Z,21.94
2023-10-09T11:37:33.495Z,21.71
2023-10-09T11:38:33.512Z,21.72
2023-10-09T11:39:33.522Z,21.54
2023-10-09T11:40:33.436Z,21.74
2023-10-09T11:41:33.505Z,21.76
2023-10-09T11:42:33.397Z,22.32
2023-10-09T11:43:33.651Z,22.25
2023-10-09T11:44:33.662Z,22.31
2023-10-09T11:45:33.355Z,22.41
2023-10-09T11:46:33.442Z,22.31
2023-10-09T11:47:33.405Z,22.29
2023-10-09T11:48:33.346Z,22.25
2023-10-09T11:49:33.667Z,22.12
2023-10-09T11:50:33.300Z,22.23
2023-10-09T11:51:33.287Z,22.28
2023-10-09T11:52:33.632Z,22.31
2023-10-09T11:53:33.272Z,22.50
2023-10-09T11:54:33.342Z,22.46
2023-10-09T11:55:33.247Z,22.46
2023-10-09T11:56:33.252Z,22.32
2023-10-09T11:57:33.269Z,22.46
2023-10-09T11:58:33.370Z,22.46
2023-10-09T11:59:33.199Z,22.07
2023-10-09T12:00:33.347Z,22.02
2023-10-09T12:01:33.924Z,22.04
2023-10-09T12:02:33.261Z,22.23
2023-10-09T12:03:33.342Z,22.49
2023-10-09T12:04:33.397Z,22.09
2023-10-09T12:05:33.128Z,22.39
2023-10-09T12:06:33.125Z,22.64
2023-10-09T12:07:33.170Z,22.29
2023-10-09T12:08:33.094Z,22.64
2023-10-09T12:09:33.094Z,22.67
2023-10-09T12:10:33.099Z,22.72
2023-10-09T12:11:33.121Z,22.64
2023-10-09T12:12:33.059Z,22.62
2023-10-09T12:13:33.138Z,22.86
2023-10-09T12:14:33.014Z,22.93
2023-10-09T12:15:33.012Z,22.82
2023-10-09T12:16:33.101Z,22.65
2023-10-09T12:17:33.171Z,22.84
2023-10-09T12:18:32.978Z,22.92
2023-10-09T12:19:33.023Z,22.78
2023-10-09T12:20:32.974Z,22.99
2023-10-09T12:21:32.942Z,22.97
2023-10-09T12:22:32.938Z,23.02
2023-10-09T12:23:32.941Z,23.14
2023-10-09T12:24:32.970Z,23.40
2023-10-09T12:25:33.097Z,23.14
2023-10-09T12:26:32.882Z,23.40
2023-10-09T12:27:32.888Z,23.35
2023-10-09T12:28:32.886Z,23.17
2023-10-09T12:29:32.893Z,22.84
2023-10-09T12:30:32.868Z,22.54
2023-10-09T12:31:32.838Z,22.87
2023-10-09T12:32:32.822Z,22.97
2023-10-09T12:33:32.948Z,23.31
2023-10-09T12:34:32.835Z,23.17
2023-10-09T12:35:34.668Z,23.19
2023-10-09T12:36:32.777Z,23.20
2023-10-09T12:37:32.784Z,22.80
2023-10-09T12:38:32.966Z,22.77
2023-10-09T12:39:32.759Z,22.87
2023-10-09T12:40:32.770Z,22.92
2023-10-09T12:41:33.192Z,23.07
2023-10-09T12:42:32.744Z,23.29
2023-10-09T12:43:32.724Z,23.34
2023-10-09T12:44:32.678Z,23.15
2023-10-09T12:45:32.673Z,23.42
2023-10-09T12:46:32.740Z,23.31
2023-10-09T12:47:32.813Z,23.42
2023-10-09T12:48:32.749Z,23.61
2023-10-09T12:49:32.659Z,23.60
2023-10-09T12:50:32.647Z,23.80
2023-10-09T12:51:32.651Z,23.82
2023-10-09T12:52:32.630Z,23.98
2023-10-09T12:53:32.839Z,24.07